sensor_id;sensor_type;location;lat;lon;timestamp;pressure;altitude;pressure_sealevel;temperature;humidity
49723;BME280;43484;43.608;1.458;2023-02-13T00:00:17;101261.41;;;5.62;100.00
49723;BME280;43484;43.608;1.458;2023-02-13T00:02:44;101264.63;;;5.59;100.00
49723;BME280;43484;43.608;1.458;2023-02-13T00:05:11;101246.47;;;5.66;100.00
49723;BME280;43484;43.608;1.458;2023-02-13T00:07:38;101250.22;;;5.71;100.00
49723;BME280;43484;43.608;1.458;2023-02-13T00:10:05;101249.78;;;5.65;100.00
49723;BME280;43484;43.608;1.458;2023-02-13T00:12:32;101253.75;;;5.73;100.00
49723;BME280;43484;43.608;1.458;2023-02-13T00:14:59;101246.72;;;5.69;100.00
49723;BME280;43484;43.608;1.458;2023-02-13T00:17:26;101244.03;;;5.68;100.00
49723;BME280;43484;43.608;1.458;2023-02-13T00:19:53;101234.09;;;5.71;100.00
49723;BME280;43484;43.608;1.458;2023-02-13T00:22:19;101235.06;;;5.73;100.00
49723;BME280;43484;43.608;1.458;2023-02-13T00:24:46;101239.53;;;5.64;100.00
49723;BME280;43484;43.608;1.458;2023-02-13T00:27:13;101230.47;;;5.67;100.00
49723;BME280;43484;43.608;1.458;2023-02-13T00:29:39;101222.50;;;5.74;100.00
49723;BME280;43484;43.608;1.458;2023-02-13T00:32:06;101235.41;;;5.77;100.00
49723;BME280;43484;43.608;1.458;2023-02-13T00:34:33;101228.22;;;5.72;100.00
49723;BME280;43484;43.608;1.458;2023-02-13T00:37:00;101218.41;;;5.65;100.00
49723;BME280;43484;43.608;1.458;2023-02-13T00:39:27;101214.88;;;5.74;100.00
49723;BME280;43484;43.608;1.458;2023-02-13T00:41:53;101215.41;;;5.70;100.00
49723;BME280;43484;43.608;1.458;2023-02-13T00:44:20;101201.06;;;5.71;100.00
49723;BME280;43484;43.608;1.458;2023-02-13T00:46:46;101200.25;;;5.72;100.00
49723;BME280;43484;43.608;1.458;2023-02-13T00:49:13;101200.16;;;5.70;100.00
49723;BME280;43484;43.608;1.458;2023-02-13T00:51:40;101195.09;;;5.59;100.00
49723;BME280;43484;43.608;1.458;2023-02-13T00:54:06;101188.56;;;5.62;100.00
49723;BME280;43484;43.608;1.458;2023-02-13T00:56:33;101183.91;;;5.68;100.00
49723;BME280;43484;43.608;1.458;2023-02-13T00:58:59;101188.91;;;5.55;100.00
49723;BME280;43484;43.608;1.458;2023-02-13T01:01:26;101183.38;;;5.61;100.00
49723;BME280;43484;43.608;1.458;2023-02-13T01:03:53;101190.78;;;5.69;100.00
49723;BME280;43484;43.608;1.458;2023-02-13T01:06:19;101195.19;;;5.72;100.00
49723;BME280;43484;43.608;1.458;2023-02-13T01:08:46;101196.97;;;5.61;100.00
49723;BME280;43484;43.608;1.458;2023-02-13T01:11:13;101193.09;;;5.55;100.00
49723;BME280;43484;43.608;1.458;2023-02-13T01:13:39;101187.28;;;5.56;100.00
49723;BME280;43484;43.608;1.458;2023-02-13T01:16:06;101186.16;;;5.52;100.00
49723;BME280;43484;43.608;1.458;2023-02-13T01:18:33;101187.28;;;5.56;100.00
49723;BME280;43484;43.608;1.458;2023-02-13T01:21:02;101186.03;;;5.62;100.00
49723;BME280;43484;43.608;1.458;2023-02-13T01:23:32;101198.53;;;5.59;100.00
49723;BME280;43484;43.608;1.458;2023-02-13T01:25:59;101194.34;;;5.48;100.00
49723;BME280;43484;43.608;1.458;2023-02-13T01:28:26;101197.00;;;5.38;100.00
49723;BME280;43484;43.608;1.458;2023-02-13T01:30:56;101187.28;;;5.44;100.00
49723;BME280;43484;43.608;1.458;2023-02-13T01:33:25;101192.47;;;5.46;100.00
49723;BME280;43484;43.608;1.458;2023-02-13T01:35:52;101180.88;;;5.49;100.00
49723;BME280;43484;43.608;1.458;2023-02-13T01:38:19;101194.78;;;5.43;100.00
49723;BME280;43484;43.608;1.458;2023-02-13T01:40:48;101185.72;;;5.46;100.00
49723;BME280;43484;43.608;1.458;2023-02-13T01:43:15;101186.41;;;5.32;100.00
49723;BME280;43484;43.608;1.458;2023-02-13T01:45:43;101180.00;;;5.26;100.00
49723;BME280;43484;43.608;1.458;2023-02-13T01:48:17;101177.22;;;5.23;100.00
49723;BME280;43484;43.608;1.458;2023-02-13T01:50:51;101170.59;;;5.25;100.00
49723;BME280;43484;43.608;1.458;2023-02-13T01:53:27;101164.53;;;5.23;100.00
49723;BME280;43484;43.608;1.458;2023-02-13T01:56:09;101159.34;;;5.21;100.00
49723;BME280;43484;43.608;1.458;2023-02-13T01:58:38;101160.47;;;5.13;100.00
49723;BME280;43484;43.608;1.458;2023-02-13T02:01:07;101159.91;;;5.17;100.00
49723;BME280;43484;43.608;1.458;2023-02-13T02:03:47;101159.72;;;5.14;100.00
49723;BME280;43484;43.608;1.458;2023-02-13T02:06:20;101149.56;;;5.14;100.00
49723;BME280;43484;43.608;1.458;2023-02-13T02:08:49;101157.91;;;5.13;100.00
49723;BME280;43484;43.608;1.458;2023-02-13T02:11:24;101149.75;;;5.17;100.00
49723;BME280;43484;43.608;1.458;2023-02-13T02:13:53;101146.44;;;5.18;100.00
49723;BME280;43484;43.608;1.458;2023-02-13T02:16:20;101148.56;;;5.12;100.00
49723;BME280;43484;43.608;1.458;2023-02-13T02:18:46;101154.38;;;5.11;100.00
49723;BME280;43484;43.608;1.458;2023-02-13T02:26:52;101148.09;;;5.06;100.00
49723;BME280;43484;43.608;1.458;2023-02-13T02:43:38;101160.47;;;5.13;100.00
49723;BME280;43484;43.608;1.458;2023-02-13T02:46:15;101162.31;;;5.04;100.00
49723;BME280;43484;43.608;1.458;2023-02-13T02:51:40;101149.00;;;4.95;100.00
49723;BME280;43484;43.608;1.458;2023-02-13T02:57:23;101164.66;;;5.01;100.00
49723;BME280;43484;43.608;1.458;2023-02-13T02:59:52;101171.94;;;4.96;100.00
49723;BME280;43484;43.608;1.458;2023-02-13T03:02:38;101168.84;;;4.89;100.00
49723;BME280;43484;43.608;1.458;2023-02-13T03:05:28;101169.63;;;4.88;100.00
49723;BME280;43484;43.608;1.458;2023-02-13T03:08:14;101161.56;;;4.82;100.00
49723;BME280;43484;43.608;1.458;2023-02-13T03:11:02;101154.59;;;4.79;100.00
49723;BME280;43484;43.608;1.458;2023-02-13T03:13:48;101147.88;;;4.80;100.00
49723;BME280;43484;43.608;1.458;2023-02-13T03:16:19;101147.09;;;4.81;100.00
49723;BME280;43484;43.608;1.458;2023-02-13T03:19:12;101145.44;;;4.81;100.00
49723;BME280;43484;43.608;1.458;2023-02-13T03:22:21;101145.13;;;4.77;100.00
49723;BME280;43484;43.608;1.458;2023-02-13T03:28:22;101138.47;;;4.79;100.00
49723;BME280;43484;43.608;1.458;2023-02-13T03:31:33;101128.78;;;4.85;100.00
49723;BME280;43484;43.608;1.458;2023-02-13T03:34:05;101132.75;;;4.81;100.00
49723;BME280;43484;43.608;1.458;2023-02-13T03:39:40;101136.84;;;4.91;100.00
49723;BME280;43484;43.608;1.458;2023-02-13T03:42:17;101134.19;;;5.01;100.00
49723;BME280;43484;43.608;1.458;2023-02-13T03:44:54;101138.94;;;4.96;100.00
49723;BME280;43484;43.608;1.458;2023-02-13T03:47:42;101136.94;;;4.92;100.00
49723;BME280;43484;43.608;1.458;2023-02-13T03:50:12;101136.84;;;4.91;100.00
49723;BME280;43484;43.608;1.458;2023-02-13T03:53:02;101142.69;;;4.90;100.00
49723;BME280;43484;43.608;1.458;2023-02-13T03:55:35;101142.69;;;4.78;100.00
49723;BME280;43484;43.608;1.458;2023-02-13T03:58:28;101146.66;;;4.75;100.00
49723;BME280;43484;43.608;1.458;2023-02-13T04:01:17;101148.00;;;4.70;100.00
49723;BME280;43484;43.608;1.458;2023-02-13T04:03:52;101152.97;;;4.80;100.00
49723;BME280;43484;43.608;1.458;2023-02-13T04:06:46;101157.81;;;4.77;100.00
49723;BME280;43484;43.608;1.458;2023-02-13T04:09:11;101145.75;;;4.63;100.00
49723;BME280;43484;43.608;1.458;2023-02-13T04:12:15;101156.00;;;4.53;100.00
49723;BME280;43484;43.608;1.458;2023-02-13T04:17:08;101151.63;;;4.50;100.00
49723;BME280;43484;43.608;1.458;2023-02-13T04:19:37;101148.41;;;4.53;100.00
49723;BME280;43484;43.608;1.458;2023-02-13T04:22:04;101143.00;;;4.48;100.00
49723;BME280;43484;43.608;1.458;2023-02-13T04:24:30;101146.09;;;4.56;100.00
49723;BME280;43484;43.608;1.458;2023-02-13T04:26:58;101139.78;;;4.62;100.00
49723;BME280;43484;43.608;1.458;2023-02-13T04:29:25;101134.81;;;4.64;100.00
49723;BME280;43484;43.608;1.458;2023-02-13T04:31:52;101142.22;;;4.61;100.00
49723;BME280;43484;43.608;1.458;2023-02-13T04:34:19;101133.59;;;4.59;100.00
49723;BME280;43484;43.608;1.458;2023-02-13T04:36:45;101141.13;;;4.69;100.00
49723;BME280;43484;43.608;1.458;2023-02-13T04:39:12;101133.75;;;4.60;100.00
49723;BME280;43484;43.608;1.458;2023-02-13T04:41:39;101129.22;;;4.68;100.00
49723;BME280;43484;43.608;1.458;2023-02-13T04:44:05;101143.03;;;4.71;100.00
49723;BME280;43484;43.608;1.458;2023-02-13T04:46:32;101139.94;;;4.75;100.00
49723;BME280;43484;43.608;1.458;2023-02-13T04:48:58;101140.28;;;4.80;100.00
49723;BME280;43484;43.608;1.458;2023-02-13T04:51:25;101140.81;;;4.87;100.00
49723;BME280;43484;43.608;1.458;2023-02-13T04:53:52;101143.44;;;4.77;100.00
49723;BME280;43484;43.608;1.458;2023-02-13T04:56:18;101149.84;;;4.72;100.00
49723;BME280;43484;43.608;1.458;2023-02-13T04:58:45;101142.91;;;4.70;100.00
49723;BME280;43484;43.608;1.458;2023-02-13T05:01:12;101146.56;;;4.62;100.00
49723;BME280;43484;43.608;1.458;2023-02-13T05:03:39;101138.59;;;4.69;100.00
49723;BME280;43484;43.608;1.458;2023-02-13T05:06:06;101142.03;;;4.81;100.00
49723;BME280;43484;43.608;1.458;2023-02-13T05:08:33;101143.13;;;4.84;100.00
49723;BME280;43484;43.608;1.458;2023-02-13T05:10:59;101139.59;;;4.94;100.00
49723;BME280;43484;43.608;1.458;2023-02-13T05:13:27;101134.75;;;4.97;100.00
49723;BME280;43484;43.608;1.458;2023-02-13T05:15:54;101140.94;;;5.00;100.00
49723;BME280;43484;43.608;1.458;2023-02-13T05:18:20;101141.16;;;4.92;100.00
49723;BME280;43484;43.608;1.458;2023-02-13T05:20:47;101143.91;;;4.95;100.00
49723;BME280;43484;43.608;1.458;2023-02-13T05:23:32;101141.59;;;4.98;100.00
49723;BME280;43484;43.608;1.458;2023-02-13T05:25:59;101141.91;;;5.02;100.00
49723;BME280;43484;43.608;1.458;2023-02-13T05:28:26;101145.56;;;5.06;100.00
49723;BME280;43484;43.608;1.458;2023-02-13T05:31:13;101143.34;;;4.99;100.00
49723;BME280;43484;43.608;1.458;2023-02-13T05:33:40;101146.13;;;5.02;100.00
49723;BME280;43484;43.608;1.458;2023-02-13T05:36:07;101144.66;;;4.94;100.00
49723;BME280;43484;43.608;1.458;2023-02-13T05:38:33;101148.31;;;4.97;100.00
49723;BME280;43484;43.608;1.458;2023-02-13T05:41:01;101146.13;;;5.02;100.00
49723;BME280;43484;43.608;1.458;2023-02-13T05:43:28;101149.09;;;4.96;100.00
49723;BME280;43484;43.608;1.458;2023-02-13T05:46:06;101156.19;;;5.00;100.00
49723;BME280;43484;43.608;1.458;2023-02-13T05:48:34;101154.97;;;5.07;100.00
49723;BME280;43484;43.608;1.458;2023-02-13T05:51:01;101164.13;;;4.93;100.00
49723;BME280;43484;43.608;1.458;2023-02-13T05:53:27;101165.53;;;4.90;100.00
49723;BME280;43484;43.608;1.458;2023-02-13T05:55:55;101153.72;;;4.79;100.00
49723;BME280;43484;43.608;1.458;2023-02-13T05:58:22;101151.75;;;4.75;100.00
49723;BME280;43484;43.608;1.458;2023-02-13T06:00:49;101154.28;;;4.75;100.00
49723;BME280;43484;43.608;1.458;2023-02-13T06:03:15;101148.53;;;4.89;100.00
49723;BME280;43484;43.608;1.458;2023-02-13T06:05:42;101153.59;;;4.89;100.00
49723;BME280;43484;43.608;1.458;2023-02-13T06:08:08;101158.25;;;4.94;100.00
49723;BME280;43484;43.608;1.458;2023-02-13T06:10:35;101173.16;;;4.90;100.00
49723;BME280;43484;43.608;1.458;2023-02-13T06:13:02;101161.22;;;4.77;100.00
49723;BME280;43484;43.608;1.458;2023-02-13T06:15:28;101158.25;;;4.71;100.00
49723;BME280;43484;43.608;1.458;2023-02-13T06:17:55;101154.72;;;4.69;100.00
49723;BME280;43484;43.608;1.458;2023-02-13T06:20:22;101156.34;;;4.69;100.00
49723;BME280;43484;43.608;1.458;2023-02-13T06:22:51;101158.22;;;4.60;100.00
49723;BME280;43484;43.608;1.458;2023-02-13T06:25:19;101149.94;;;4.62;100.00
49723;BME280;43484;43.608;1.458;2023-02-13T06:27:46;101157.44;;;4.61;100.00
49723;BME280;43484;43.608;1.458;2023-02-13T06:30:14;101149.63;;;4.58;100.00
49723;BME280;43484;43.608;1.458;2023-02-13T06:32:41;101148.53;;;4.66;100.00
49723;BME280;43484;43.608;1.458;2023-02-13T06:35:08;101154.50;;;4.66;100.00
49723;BME280;43484;43.608;1.458;2023-02-13T06:37:35;101154.91;;;4.61;100.00
49723;BME280;43484;43.608;1.458;2023-02-13T06:40:02;101158.22;;;4.60;100.00
49723;BME280;43484;43.608;1.458;2023-02-13T06:42:29;101160.56;;;4.57;100.00
49723;BME280;43484;43.608;1.458;2023-02-13T06:44:55;101161.09;;;4.53;100.00
49723;BME280;43484;43.608;1.458;2023-02-13T06:47:22;101167.38;;;4.58;100.00
49723;BME280;43484;43.608;1.458;2023-02-13T06:49:49;101164.19;;;4.60;100.00
49723;BME280;43484;43.608;1.458;2023-02-13T06:52:15;101164.31;;;4.62;100.00
49723;BME280;43484;43.608;1.458;2023-02-13T06:54:42;101166.25;;;4.43;100.00
49723;BME280;43484;43.608;1.458;2023-02-13T06:57:14;101160.09;;;4.51;100.00
49723;BME280;43484;43.608;1.458;2023-02-13T06:59:41;101160.44;;;4.55;100.00
49723;BME280;43484;43.608;1.458;2023-02-13T07:02:09;101165.16;;;4.51;100.00
49723;BME280;43484;43.608;1.458;2023-02-13T07:04:36;101164.50;;;4.53;100.00
49723;BME280;43484;43.608;1.458;2023-02-13T07:07:04;101170.69;;;4.45;100.00
49723;BME280;43484;43.608;1.458;2023-02-13T07:09:31;101158.75;;;4.56;100.00
49723;BME280;43484;43.608;1.458;2023-02-13T07:11:57;101161.78;;;4.62;100.00
49723;BME280;43484;43.608;1.458;2023-02-13T07:14:24;101166.06;;;4.63;100.00
49723;BME280;43484;43.608;1.458;2023-02-13T07:16:50;101171.56;;;4.57;100.00
49723;BME280;43484;43.608;1.458;2023-02-13T07:19:17;101173.88;;;4.54;100.00
49723;BME280;43484;43.608;1.458;2023-02-13T07:21:44;101174.09;;;4.57;100.00
49723;BME280;43484;43.608;1.458;2023-02-13T07:24:10;101174.34;;;4.60;100.00
49723;BME280;43484;43.608;1.458;2023-02-13T07:26:37;101178.66;;;4.61;100.00
49723;BME280;43484;43.608;1.458;2023-02-13T07:29:03;101186.56;;;4.54;100.00
49723;BME280;43484;43.608;1.458;2023-02-13T07:31:37;101179.97;;;4.56;100.00
49723;BME280;43484;43.608;1.458;2023-02-13T07:34:05;101177.19;;;4.53;100.00
49723;BME280;43484;43.608;1.458;2023-02-13T07:36:31;101180.06;;;4.58;100.00
49723;BME280;43484;43.608;1.458;2023-02-13T07:38:58;101185.16;;;4.58;100.00
49723;BME280;43484;43.608;1.458;2023-02-13T07:41:24;101183.50;;;4.58;100.00
49723;BME280;43484;43.608;1.458;2023-02-13T07:43:53;101181.06;;;4.60;100.00
49723;BME280;43484;43.608;1.458;2023-02-13T07:46:20;101186.91;;;4.59;100.00
49723;BME280;43484;43.608;1.458;2023-02-13T07:48:46;101185.81;;;4.55;100.00
49723;BME280;43484;43.608;1.458;2023-02-13T07:51:13;101187.91;;;4.61;100.00
49723;BME280;43484;43.608;1.458;2023-02-13T07:53:40;101178.13;;;4.65;100.00
49723;BME280;43484;43.608;1.458;2023-02-13T07:56:08;101182.41;;;4.66;100.00
49723;BME280;43484;43.608;1.458;2023-02-13T07:58:37;101183.19;;;4.65;100.00
49723;BME280;43484;43.608;1.458;2023-02-13T08:01:09;101187.81;;;4.71;100.00
49723;BME280;43484;43.608;1.458;2023-02-13T08:03:37;101192.34;;;4.75;100.00
49723;BME280;43484;43.608;1.458;2023-02-13T08:06:05;101182.19;;;4.75;100.00
49723;BME280;43484;43.608;1.458;2023-02-13T08:08:33;101185.50;;;4.74;100.00
49723;BME280;43484;43.608;1.458;2023-02-13T08:11:05;101183.41;;;4.80;100.00
49723;BME280;43484;43.608;1.458;2023-02-13T08:13:51;101178.88;;;4.76;100.00
49723;BME280;43484;43.608;1.458;2023-02-13T08:16:18;101176.59;;;4.90;100.00
49723;BME280;43484;43.608;1.458;2023-02-13T08:18:44;101172.84;;;4.97;100.00
49723;BME280;43484;43.608;1.458;2023-02-13T08:21:11;101180.34;;;4.95;100.00
49723;BME280;43484;43.608;1.458;2023-02-13T08:23:40;101182.53;;;5.02;100.00
49723;BME280;43484;43.608;1.458;2023-02-13T08:26:07;101186.97;;;5.05;100.00
49723;BME280;43484;43.608;1.458;2023-02-13T08:28:34;101192.16;;;5.06;100.00
49723;BME280;43484;43.608;1.458;2023-02-13T08:31:00;101195.91;;;5.11;100.00
49723;BME280;43484;43.608;1.458;2023-02-13T08:33:27;101194.59;;;5.17;100.00
49723;BME280;43484;43.608;1.458;2023-02-13T08:35:53;101189.06;;;5.22;100.00
49723;BME280;43484;43.608;1.458;2023-02-13T08:38:20;101185.97;;;5.26;100.00
49723;BME280;43484;43.608;1.458;2023-02-13T08:40:47;101182.78;;;5.29;100.00
49723;BME280;43484;43.608;1.458;2023-02-13T08:43:13;101191.50;;;5.32;100.00
49723;BME280;43484;43.608;1.458;2023-02-13T08:45:40;101188.03;;;5.43;100.00
49723;BME280;43484;43.608;1.458;2023-02-13T08:48:07;101192.69;;;5.49;100.00
49723;BME280;43484;43.608;1.458;2023-02-13T08:50:34;101184.38;;;5.51;100.00
49723;BME280;43484;43.608;1.458;2023-02-13T08:53:03;101187.28;;;5.56;100.00
49723;BME280;43484;43.608;1.458;2023-02-13T08:55:29;101188.78;;;5.65;100.00
49723;BME280;43484;43.608;1.458;2023-02-13T08:58:01;101185.78;;;5.82;100.00
49723;BME280;43484;43.608;1.458;2023-02-13T09:00:28;101187.63;;;5.96;100.00
49723;BME280;43484;43.608;1.458;2023-02-13T09:02:59;101188.91;;;6.03;100.00
49723;BME280;43484;43.608;1.458;2023-02-13T09:05:28;101193.53;;;6.08;100.00
49723;BME280;43484;43.608;1.458;2023-02-13T09:07:59;101189.34;;;6.33;100.00
49723;BME280;43484;43.608;1.458;2023-02-13T09:10:29;101197.56;;;6.67;100.00
49723;BME280;43484;43.608;1.458;2023-02-13T09:12:56;101213.00;;;6.57;100.00
49723;BME280;43484;43.608;1.458;2023-02-13T09:15:22;101216.19;;;6.66;100.00
49723;BME280;43484;43.608;1.458;2023-02-13T09:17:49;101227.97;;;6.90;100.00
49723;BME280;43484;43.608;1.458;2023-02-13T09:20:16;101239.97;;;7.04;100.00
49723;BME280;43484;43.608;1.458;2023-02-13T09:22:42;101257.22;;;7.21;100.00
49723;BME280;43484;43.608;1.458;2023-02-13T09:25:09;101269.56;;;7.28;100.00
49723;BME280;43484;43.608;1.458;2023-02-13T09:27:36;101279.69;;;7.40;100.00
49723;BME280;43484;43.608;1.458;2023-02-13T09:30:06;101309.97;;;7.48;100.00
49723;BME280;43484;43.608;1.458;2023-02-13T09:32:33;101326.16;;;7.62;100.00
49723;BME280;43484;43.608;1.458;2023-02-13T09:35:00;101347.06;;;7.70;100.00
49723;BME280;43484;43.608;1.458;2023-02-13T09:37:26;101373.06;;;7.77;100.00
49723;BME280;43484;43.608;1.458;2023-02-13T09:39:53;101389.78;;;7.85;100.00
49723;BME280;43484;43.608;1.458;2023-02-13T09:42:23;101403.91;;;7.93;100.00
49723;BME280;43484;43.608;1.458;2023-02-13T09:44:54;101424.31;;;8.06;100.00
49723;BME280;43484;43.608;1.458;2023-02-13T09:47:36;101440.00;;;8.12;100.00
49723;BME280;43484;43.608;1.458;2023-02-13T09:50:20;101459.06;;;8.17;100.00
49723;BME280;43484;43.608;1.458;2023-02-13T09:52:50;101466.34;;;8.37;100.00
49723;BME280;43484;43.608;1.458;2023-02-13T09:55:22;101479.63;;;8.45;100.00
49723;BME280;43484;43.608;1.458;2023-02-13T10:16:20;101510.59;;;9.03;100.00
49723;BME280;43484;43.608;1.458;2023-02-13T10:18:52;101521.53;;;9.01;100.00
49723;BME280;43484;43.608;1.458;2023-02-13T10:21:24;101521.78;;;9.05;100.00
49723;BME280;43484;43.608;1.458;2023-02-13T10:24:09;101514.78;;;9.16;100.00
49723;BME280;43484;43.608;1.458;2023-02-13T10:26:39;101519.78;;;9.27;100.00
49723;BME280;43484;43.608;1.458;2023-02-13T10:32:01;101513.81;;;9.41;100.00
49723;BME280;43484;43.608;1.458;2023-02-13T10:34:34;101511.81;;;9.50;100.00
49723;BME280;43484;43.608;1.458;2023-02-13T10:37:08;101517.34;;;9.43;100.00
49723;BME280;43484;43.608;1.458;2023-02-13T10:39:40;101525.41;;;9.49;100.00
49723;BME280;43484;43.608;1.458;2023-02-13T10:53:20;101528.25;;;9.83;100.00
49723;BME280;43484;43.608;1.458;2023-02-13T10:59:01;101531.63;;;9.82;100.00
49723;BME280;43484;43.608;1.458;2023-02-13T11:01:36;101525.59;;;10.09;100.00
49723;BME280;43484;43.608;1.458;2023-02-13T11:04:11;101525.34;;;10.19;100.00
49723;BME280;43484;43.608;1.458;2023-02-13T11:06:42;101526.41;;;10.23;100.00
49723;BME280;43484;43.608;1.458;2023-02-13T11:09:09;101537.44;;;10.22;100.00
49723;BME280;43484;43.608;1.458;2023-02-13T11:11:41;101523.31;;;10.28;100.00
49723;BME280;43484;43.608;1.458;2023-02-13T11:19:32;101515.09;;;10.48;100.00
49723;BME280;43484;43.608;1.458;2023-02-13T11:22:12;101507.47;;;10.50;100.00
49723;BME280;43484;43.608;1.458;2023-02-13T11:24:42;101505.78;;;10.50;100.00
49723;BME280;43484;43.608;1.458;2023-02-13T11:27:23;101503.31;;;10.52;100.00
49723;BME280;43484;43.608;1.458;2023-02-13T11:29:57;101505.25;;;10.56;100.00
49723;BME280;43484;43.608;1.458;2023-02-13T11:32:27;101507.28;;;10.61;100.00
49723;BME280;43484;43.608;1.458;2023-02-13T11:34:54;101495.53;;;10.65;100.00
49723;BME280;43484;43.608;1.458;2023-02-13T11:39:53;101494.25;;;10.73;100.00
49723;BME280;43484;43.608;1.458;2023-02-13T11:42:25;101496.00;;;10.74;100.00
49723;BME280;43484;43.608;1.458;2023-02-13T11:44:56;101490.97;;;10.75;100.00
49723;BME280;43484;43.608;1.458;2023-02-13T11:47:39;101489.53;;;10.80;100.00
49723;BME280;43484;43.608;1.458;2023-02-13T11:50:33;101488.78;;;10.97;100.00
49723;BME280;43484;43.608;1.458;2023-02-13T11:53:06;101473.63;;;11.02;100.00
49723;BME280;43484;43.608;1.458;2023-02-13T11:55:39;101486.31;;;11.15;100.00
49723;BME280;43484;43.608;1.458;2023-02-13T12:00:38;101477.75;;;11.14;100.00
49723;BME280;43484;43.608;1.458;2023-02-13T12:06:01;101473.56;;;11.16;100.00
49723;BME280;43484;43.608;1.458;2023-02-13T12:08:29;101472.75;;;11.17;100.00
49723;BME280;43484;43.608;1.458;2023-02-13T12:10:58;101470.34;;;11.20;100.00
49723;BME280;43484;43.608;1.458;2023-02-13T12:13:30;101471.34;;;11.38;100.00
49723;BME280;43484;43.608;1.458;2023-02-13T12:16:02;101467.81;;;11.36;100.00
49723;BME280;43484;43.608;1.458;2023-02-13T12:18:31;101471.72;;;11.46;100.00
49723;BME280;43484;43.608;1.458;2023-02-13T12:21:34;101462.53;;;11.33;100.00
49723;BME280;43484;43.608;1.458;2023-02-13T12:24:32;101471.00;;;11.49;100.00
49723;BME280;43484;43.608;1.458;2023-02-13T12:35:43;101442.28;;;11.72;100.00
49723;BME280;43484;43.608;1.458;2023-02-13T12:41:27;101446.25;;;11.83;100.00
49723;BME280;43484;43.608;1.458;2023-02-13T12:46:55;101432.31;;;11.78;100.00
49723;BME280;43484;43.608;1.458;2023-02-13T12:49:27;101442.72;;;11.81;100.00
49723;BME280;43484;43.608;1.458;2023-02-13T12:52:18;101426.13;;;11.90;100.00
49723;BME280;43484;43.608;1.458;2023-02-13T13:11:32;101405.13;;;12.34;100.00
49723;BME280;43484;43.608;1.458;2023-02-13T13:22:41;101395.84;;;12.37;100.00
49723;BME280;43484;43.608;1.458;2023-02-13T13:27:51;101387.50;;;12.41;100.00
49723;BME280;43484;43.608;1.458;2023-02-13T13:30:31;101389.34;;;12.44;100.00
49723;BME280;43484;43.608;1.458;2023-02-13T13:33:19;101383.50;;;12.48;100.00
49723;BME280;43484;43.608;1.458;2023-02-13T13:47:26;101373.72;;;12.58;100.00
49723;BME280;43484;43.608;1.458;2023-02-13T13:49:58;101377.31;;;12.62;100.00
49723;BME280;43484;43.608;1.458;2023-02-13T13:52:35;101368.47;;;12.55;100.00
49723;BME280;43484;43.608;1.458;2023-02-13T13:55:05;101367.91;;;12.62;100.00
49723;BME280;43484;43.608;1.458;2023-02-13T14:00:25;101372.44;;;12.68;100.00
49723;BME280;43484;43.608;1.458;2023-02-13T14:03:21;101363.13;;;12.70;100.00
49723;BME280;43484;43.608;1.458;2023-02-13T14:06:00;101368.81;;;12.82;100.00
49723;BME280;43484;43.608;1.458;2023-02-13T14:11:03;101354.06;;;12.78;100.00
49723;BME280;43484;43.608;1.458;2023-02-13T14:13:40;101361.16;;;12.84;100.00
49723;BME280;43484;43.608;1.458;2023-02-13T14:16:10;101359.66;;;12.70;100.00
49723;BME280;43484;43.608;1.458;2023-02-13T14:18:44;101358.19;;;12.75;100.00
49723;BME280;43484;43.608;1.458;2023-02-13T14:21:21;101351.75;;;12.65;100.00
49723;BME280;43484;43.608;1.458;2023-02-13T14:23:49;101355.75;;;12.58;100.00
49723;BME280;43484;43.608;1.458;2023-02-13T14:26:32;101358.09;;;12.73;100.00
49723;BME280;43484;43.608;1.458;2023-02-13T14:32:04;101350.69;;;12.79;100.00
49723;BME280;43484;43.608;1.458;2023-02-13T14:34:35;101354.25;;;12.83;100.00
49723;BME280;43484;43.608;1.458;2023-02-13T14:39:36;101350.94;;;12.85;100.00
49723;BME280;43484;43.608;1.458;2023-02-13T14:42:21;101340.72;;;12.87;100.00
49723;BME280;43484;43.608;1.458;2023-02-13T14:44:50;101353.09;;;12.76;100.00
49723;BME280;43484;43.608;1.458;2023-02-13T14:47:21;101353.84;;;12.74;100.00
49723;BME280;43484;43.608;1.458;2023-02-13T14:49:50;101354.88;;;12.77;100.00
49723;BME280;43484;43.608;1.458;2023-02-13T14:52:29;101352.50;;;12.82;100.00
49723;BME280;43484;43.608;1.458;2023-02-13T14:55:03;101349.72;;;12.77;100.00
49723;BME280;43484;43.608;1.458;2023-02-13T14:57:44;101347.81;;;12.73;100.00
49723;BME280;43484;43.608;1.458;2023-02-13T15:02:52;101348.91;;;12.78;100.00
49723;BME280;43484;43.608;1.458;2023-02-13T15:05:21;101349.66;;;12.76;100.00
49723;BME280;43484;43.608;1.458;2023-02-13T15:08:18;101352.47;;;12.62;100.00
49723;BME280;43484;43.608;1.458;2023-02-13T15:10:49;101340.16;;;12.75;100.00
49723;BME280;43484;43.608;1.458;2023-02-13T15:13:19;101343.44;;;12.71;100.00
49723;BME280;43484;43.608;1.458;2023-02-13T15:15:58;101343.63;;;12.75;100.00
49723;BME280;43484;43.608;1.458;2023-02-13T15:18:29;101333.78;;;12.84;100.00
49723;BME280;43484;43.608;1.458;2023-02-13T15:20:58;101336.88;;;12.77;100.00
49723;BME280;43484;43.608;1.458;2023-02-13T15:23:31;101333.41;;;12.77;100.00
49723;BME280;43484;43.608;1.458;2023-02-13T15:26:04;101344.38;;;12.73;100.00
49723;BME280;43484;43.608;1.458;2023-02-13T15:28:33;101338.75;;;12.81;100.00
49723;BME280;43484;43.608;1.458;2023-02-13T15:31:06;101339.09;;;12.70;100.00
49723;BME280;43484;43.608;1.458;2023-02-13T15:33:46;101336.59;;;12.71;100.00
49723;BME280;43484;43.608;1.458;2023-02-13T15:36:21;101338.06;;;12.66;100.00
49723;BME280;43484;43.608;1.458;2023-02-13T15:39:01;101344.03;;;12.65;100.00